sensor_id;sensor_type;location;lat;lon;timestamp;P1;durP1;ratioP1;P2;durP2;ratioP2
42104;SDS011;68281;51.472;5.712;2023-03-01T00:01:12;33.63;;;17.73;;
42104;SDS011;68281;51.472;5.712;2023-03-01T00:03:41;36.63;;;17.85;;
42104;SDS011;68281;51.472;5.712;2023-03-01T00:06:08;36.63;;;17.35;;
42104;SDS011;68281;51.472;5.712;2023-03-01T00:08:34;36.92;;;17.40;;
42104;SDS011;68281;51.472;5.712;2023-03-01T00:13:43;35.40;;;16.67;;
42104;SDS011;68281;51.472;5.712;2023-03-01T00:16:12;32.55;;;16.85;;
42104;SDS011;68281;51.472;5.712;2023-03-01T00:18:41;31.95;;;16.25;;
42104;SDS011;68281;51.472;5.712;2023-03-01T00:21:06;31.63;;;16.33;;
42104;SDS011;68281;51.472;5.712;2023-03-01T00:23:36;35.38;;;16.17;;
42104;SDS011;68281;51.472;5.712;2023-03-01T00:26:05;29.00;;;15.55;;
42104;SDS011;68281;51.472;5.712;2023-03-01T00:28:33;29.23;;;15.32;;
42104;SDS011;68281;51.472;5.712;2023-03-01T00:31:03;28.85;;;15.55;;
42104;SDS011;68281;51.472;5.712;2023-03-01T00:33:35;31.02;;;16.13;;
42104;SDS011;68281;51.472;5.712;2023-03-01T00:36:02;29.90;;;14.65;;
42104;SDS011;68281;51.472;5.712;2023-03-01T00:38:28;25.63;;;15.00;;
42104;SDS011;68281;51.472;5.712;2023-03-01T00:40:55;27.85;;;13.93;;
42104;SDS011;68281;51.472;5.712;2023-03-01T00:43:20;26.30;;;14.95;;
42104;SDS011;68281;51.472;5.712;2023-03-01T00:45:46;24.63;;;13.68;;
42104;SDS011;68281;51.472;5.712;2023-03-01T00:48:12;23.38;;;13.00;;
42104;SDS011;68281;51.472;5.712;2023-03-01T00:50:38;25.33;;;14.13;;
42104;SDS011;68281;51.472;5.712;2023-03-01T00:53:04;25.02;;;13.32;;
42104;SDS011;68281;51.472;5.712;2023-03-01T00:55:30;26.40;;;13.68;;
42104;SDS011;68281;51.472;5.712;2023-03-01T00:57:55;26.45;;;12.98;;
42104;SDS011;68281;51.472;5.712;2023-03-01T01:00:21;24.63;;;13.32;;
42104;SDS011;68281;51.472;5.712;2023-03-01T01:02:47;25.00;;;13.60;;
42104;SDS011;68281;51.472;5.712;2023-03-01T01:05:13;21.17;;;11.40;;
42104;SDS011;68281;51.472;5.712;2023-03-01T01:07:39;19.85;;;11.90;;
42104;SDS011;68281;51.472;5.712;2023-03-01T01:10:05;20.95;;;11.75;;
42104;SDS011;68281;51.472;5.712;2023-03-01T01:12:32;22.75;;;12.02;;
42104;SDS011;68281;51.472;5.712;2023-03-01T01:14:58;23.27;;;11.43;;
42104;SDS011;68281;51.472;5.712;2023-03-01T01:17:24;20.63;;;11.18;;
42104;SDS011;68281;51.472;5.712;2023-03-01T01:19:50;23.10;;;11.50;;
42104;SDS011;68281;51.472;5.712;2023-03-01T01:22:16;18.65;;;10.20;;
42104;SDS011;68281;51.472;5.712;2023-03-01T01:24:41;21.13;;;11.15;;
42104;SDS011;68281;51.472;5.712;2023-03-01T01:27:07;20.67;;;11.13;;
42104;SDS011;68281;51.472;5.712;2023-03-01T01:29:33;20.30;;;10.68;;
42104;SDS011;68281;51.472;5.712;2023-03-01T01:31:59;16.90;;;9.50;;
42104;SDS011;68281;51.472;5.712;2023-03-01T01:34:25;20.25;;;10.63;;
42104;SDS011;68281;51.472;5.712;2023-03-01T01:36:51;20.83;;;10.93;;
42104;SDS011;68281;51.472;5.712;2023-03-01T01:39:19;18.55;;;10.45;;
42104;SDS011;68281;51.472;5.712;2023-03-01T01:41:45;17.27;;;10.52;;
42104;SDS011;68281;51.472;5.712;2023-03-01T01:44:16;17.63;;;9.52;;
42104;SDS011;68281;51.472;5.712;2023-03-01T01:47:04;16.15;;;9.25;;
42104;SDS011;68281;51.472;5.712;2023-03-01T01:49:39;20.48;;;10.15;;
42104;SDS011;68281;51.472;5.712;2023-03-01T01:52:11;18.52;;;9.55;;
42104;SDS011;68281;51.472;5.712;2023-03-01T01:57:56;16.27;;;9.48;;
42104;SDS011;68281;51.472;5.712;2023-03-01T02:00:27;20.40;;;8.98;;
42104;SDS011;68281;51.472;5.712;2023-03-01T02:02:56;15.77;;;9.02;;
42104;SDS011;68281;51.472;5.712;2023-03-01T02:08:37;13.95;;;7.97;;
42104;SDS011;68281;51.472;5.712;2023-03-01T02:11:06;16.02;;;8.65;;
42104;SDS011;68281;51.472;5.712;2023-03-01T02:13:33;19.40;;;9.48;;
42104;SDS011;68281;51.472;5.712;2023-03-01T02:16:04;15.65;;;8.73;;
42104;SDS011;68281;51.472;5.712;2023-03-01T02:18:33;14.40;;;8.05;;
42104;SDS011;68281;51.472;5.712;2023-03-01T02:23:53;12.80;;;7.82;;
42104;SDS011;68281;51.472;5.712;2023-03-01T02:26:23;13.80;;;8.40;;
42104;SDS011;68281;51.472;5.712;2023-03-01T02:29:09;13.25;;;7.80;;
42104;SDS011;68281;51.472;5.712;2023-03-01T02:31:35;16.65;;;7.85;;
42104;SDS011;68281;51.472;5.712;2023-03-01T02:34:09;12.30;;;7.30;;
42104;SDS011;68281;51.472;5.712;2023-03-01T02:36:47;13.30;;;7.32;;
42104;SDS011;68281;51.472;5.712;2023-03-01T02:39:21;10.98;;;6.85;;
42104;SDS011;68281;51.472;5.712;2023-03-01T02:41:56;12.07;;;7.22;;
42104;SDS011;68281;51.472;5.712;2023-03-01T02:44:23;13.48;;;7.35;;
42104;SDS011;68281;51.472;5.712;2023-03-01T02:46:50;13.25;;;7.15;;
42104;SDS011;68281;51.472;5.712;2023-03-01T02:49:27;14.07;;;7.35;;
42104;SDS011;68281;51.472;5.712;2023-03-01T02:54:42;11.23;;;6.95;;
42104;SDS011;68281;51.472;5.712;2023-03-01T02:57:19;10.95;;;6.65;;
42104;SDS011;68281;51.472;5.712;2023-03-01T02:59:47;9.48;;;6.45;;
42104;SDS011;68281;51.472;5.712;2023-03-01T03:02:19;11.52;;;6.30;;
42104;SDS011;68281;51.472;5.712;2023-03-01T03:05:03;12.52;;;6.07;;
42104;SDS011;68281;51.472;5.712;2023-03-01T03:07:36;11.18;;;6.35;;
42104;SDS011;68281;51.472;5.712;2023-03-01T03:10:06;12.95;;;6.40;;
42104;SDS011;68281;51.472;5.712;2023-03-01T03:12:39;9.60;;;5.47;;
42104;SDS011;68281;51.472;5.712;2023-03-01T03:15:06;9.95;;;5.70;;
42104;SDS011;68281;51.472;5.712;2023-03-01T03:17:38;10.52;;;5.97;;
42104;SDS011;68281;51.472;5.712;2023-03-01T03:20:06;10.35;;;6.18;;
42104;SDS011;68281;51.472;5.712;2023-03-01T03:22:37;9.48;;;5.95;;
42104;SDS011;68281;51.472;5.712;2023-03-01T03:25:05;8.70;;;5.55;;
42104;SDS011;68281;51.472;5.712;2023-03-01T03:27:36;10.75;;;6.05;;
42104;SDS011;68281;51.472;5.712;2023-03-01T03:30:09;9.25;;;5.32;;
42104;SDS011;68281;51.472;5.712;2023-03-01T03:32:42;9.93;;;5.60;;
42104;SDS011;68281;51.472;5.712;2023-03-01T03:35:25;9.60;;;5.82;;
42104;SDS011;68281;51.472;5.712;2023-03-01T03:37:58;9.73;;;5.63;;
42104;SDS011;68281;51.472;5.712;2023-03-01T03:40:38;7.47;;;5.45;;
42104;SDS011;68281;51.472;5.712;2023-03-01T03:43:23;8.77;;;5.30;;
42104;SDS011;68281;51.472;5.712;2023-03-01T03:45:49;8.93;;;5.07;;
42104;SDS011;68281;51.472;5.712;2023-03-01T03:48:16;8.68;;;5.55;;
42104;SDS011;68281;51.472;5.712;2023-03-01T03:50:47;7.63;;;4.80;;
42104;SDS011;68281;51.472;5.712;2023-03-01T03:53:21;8.85;;;5.15;;
42104;SDS011;68281;51.472;5.712;2023-03-01T03:55:49;9.32;;;5.50;;
42104;SDS011;68281;51.472;5.712;2023-03-01T03:58:16;7.32;;;4.90;;
42104;SDS011;68281;51.472;5.712;2023-03-01T04:00:45;6.82;;;4.75;;
42104;SDS011;68281;51.472;5.712;2023-03-01T04:03:13;8.90;;;5.07;;
42104;SDS011;68281;51.472;5.712;2023-03-01T04:05:41;7.13;;;5.00;;
42104;SDS011;68281;51.472;5.712;2023-03-01T04:08:08;8.32;;;4.93;;
42104;SDS011;68281;51.472;5.712;2023-03-01T04:10:37;8.70;;;4.88;;
42104;SDS011;68281;51.472;5.712;2023-03-01T04:13:13;8.32;;;4.70;;
42104;SDS011;68281;51.472;5.712;2023-03-01T04:15:46;9.38;;;4.80;;
42104;SDS011;68281;51.472;5.712;2023-03-01T04:18:18;7.70;;;4.63;;
42104;SDS011;68281;51.472;5.712;2023-03-01T04:20:45;6.80;;;4.45;;
42104;SDS011;68281;51.472;5.712;2023-03-01T04:23:13;7.90;;;4.32;;
42104;SDS011;68281;51.472;5.712;2023-03-01T04:30:55;8.18;;;4.68;;
42104;SDS011;68281;51.472;5.712;2023-03-01T04:33:24;6.07;;;4.18;;
42104;SDS011;68281;51.472;5.712;2023-03-01T04:35:50;7.47;;;4.22;;
42104;SDS011;68281;51.472;5.712;2023-03-01T04:38:17;5.72;;;3.80;;
42104;SDS011;68281;51.472;5.712;2023-03-01T04:40:44;6.82;;;4.05;;
42104;SDS011;68281;51.472;5.712;2023-03-01T04:43:11;7.68;;;4.22;;
42104;SDS011;68281;51.472;5.712;2023-03-01T04:45:40;5.40;;;3.80;;
42104;SDS011;68281;51.472;5.712;2023-03-01T04:48:06;5.65;;;4.00;;
42104;SDS011;68281;51.472;5.712;2023-03-01T04:50:32;6.88;;;3.80;;
42104;SDS011;68281;51.472;5.712;2023-03-01T04:52:58;5.95;;;3.90;;
42104;SDS011;68281;51.472;5.712;2023-03-01T04:55:25;6.32;;;4.15;;
42104;SDS011;68281;51.472;5.712;2023-03-01T04:57:52;5.90;;;3.78;;
42104;SDS011;68281;51.472;5.712;2023-03-01T05:00:19;7.22;;;4.00;;
42104;SDS011;68281;51.472;5.712;2023-03-01T05:02:59;5.28;;;3.70;;
42104;SDS011;68281;51.472;5.712;2023-03-01T05:08:01;6.78;;;4.00;;
42104;SDS011;68281;51.472;5.712;2023-03-01T05:10:31;5.90;;;3.75;;
42104;SDS011;68281;51.472;5.712;2023-03-01T05:13:00;5.22;;;3.80;;
42104;SDS011;68281;51.472;5.712;2023-03-01T05:15:27;5.68;;;3.90;;
42104;SDS011;68281;51.472;5.712;2023-03-01T05:17:55;4.90;;;3.63;;
42104;SDS011;68281;51.472;5.712;2023-03-01T05:20:24;5.63;;;3.80;;
42104;SDS011;68281;51.472;5.712;2023-03-01T05:22:55;5.72;;;3.60;;
42104;SDS011;68281;51.472;5.712;2023-03-01T05:25:24;5.85;;;3.70;;
42104;SDS011;68281;51.472;5.712;2023-03-01T05:27:50;7.47;;;3.72;;
42104;SDS011;68281;51.472;5.712;2023-03-01T05:30:16;6.15;;;3.80;;
42104;SDS011;68281;51.472;5.712;2023-03-01T05:32:43;5.80;;;3.45;;
42104;SDS011;68281;51.472;5.712;2023-03-01T05:35:13;4.88;;;3.40;;
42104;SDS011;68281;51.472;5.712;2023-03-01T05:37:42;5.25;;;3.83;;
42104;SDS011;68281;51.472;5.712;2023-03-01T05:40:10;4.95;;;3.88;;
42104;SDS011;68281;51.472;5.712;2023-03-01T05:42:45;4.95;;;3.60;;
42104;SDS011;68281;51.472;5.712;2023-03-01T05:45:20;5.70;;;3.40;;
42104;SDS011;68281;51.472;5.712;2023-03-01T05:47:48;5.82;;;3.72;;
42104;SDS011;68281;51.472;5.712;2023-03-01T05:50:19;5.20;;;3.40;;
42104;SDS011;68281;51.472;5.712;2023-03-01T05:53:04;5.30;;;3.67;;
42104;SDS011;68281;51.472;5.712;2023-03-01T05:55:51;4.90;;;3.30;;
42104;SDS011;68281;51.472;5.712;2023-03-01T05:58:18;4.53;;;3.40;;
42104;SDS011;68281;51.472;5.712;2023-03-01T06:00:45;4.20;;;3.05;;
42104;SDS011;68281;51.472;5.712;2023-03-01T06:03:14;6.18;;;3.63;;
42104;SDS011;68281;51.472;5.712;2023-03-01T06:05:42;4.50;;;3.20;;
42104;SDS011;68281;51.472;5.712;2023-03-01T06:08:09;5.82;;;3.50;;
42104;SDS011;68281;51.472;5.712;2023-03-01T06:10:36;6.82;;;3.60;;
42104;SDS011;68281;51.472;5.712;2023-03-01T06:13:02;4.65;;;3.30;;
42104;SDS011;68281;51.472;5.712;2023-03-01T06:15:28;4.10;;;3.08;;
42104;SDS011;68281;51.472;5.712;2023-03-01T06:17:54;4.60;;;3.28;;
42104;SDS011;68281;51.472;5.712;2023-03-01T06:20:25;4.07;;;3.20;;
42104;SDS011;68281;51.472;5.712;2023-03-01T06:22:52;4.95;;;3.10;;
42104;SDS011;68281;51.472;5.712;2023-03-01T06:25:19;4.25;;;3.28;;
42104;SDS011;68281;51.472;5.712;2023-03-01T06:27:47;4.50;;;3.10;;
42104;SDS011;68281;51.472;5.712;2023-03-01T06:30:14;4.45;;;3.00;;
42104;SDS011;68281;51.472;5.712;2023-03-01T06:32:43;5.00;;;3.33;;
42104;SDS011;68281;51.472;5.712;2023-03-01T06:35:10;5.20;;;3.33;;
42104;SDS011;68281;51.472;5.712;2023-03-01T06:37:38;4.53;;;3.10;;
42104;SDS011;68281;51.472;5.712;2023-03-01T06:40:05;4.78;;;3.50;;
42104;SDS011;68281;51.472;5.712;2023-03-01T06:42:36;4.43;;;3.10;;
42104;SDS011;68281;51.472;5.712;2023-03-01T06:45:07;5.07;;;3.25;;
42104;SDS011;68281;51.472;5.712;2023-03-01T06:47:34;4.43;;;2.97;;
42104;SDS011;68281;51.472;5.712;2023-03-01T06:50:00;5.38;;;3.20;;
42104;SDS011;68281;51.472;5.712;2023-03-01T06:52:27;4.90;;;3.42;;
42104;SDS011;68281;51.472;5.712;2023-03-01T06:54:54;4.30;;;3.20;;
42104;SDS011;68281;51.472;5.712;2023-03-01T06:57:20;4.15;;;3.40;;
42104;SDS011;68281;51.472;5.712;2023-03-01T06:59:46;5.13;;;3.22;;
42104;SDS011;68281;51.472;5.712;2023-03-01T07:02:13;4.30;;;3.30;;
42104;SDS011;68281;51.472;5.712;2023-03-01T07:04:40;4.43;;;3.15;;
42104;SDS011;68281;51.472;5.712;2023-03-01T07:07:07;3.85;;;2.95;;
42104;SDS011;68281;51.472;5.712;2023-03-01T07:09:33;4.50;;;2.90;;
42104;SDS011;68281;51.472;5.712;2023-03-01T07:11:59;4.25;;;3.38;;
42104;SDS011;68281;51.472;5.712;2023-03-01T07:14:25;4.10;;;2.95;;
42104;SDS011;68281;51.472;5.712;2023-03-01T07:16:54;3.97;;;3.00;;
42104;SDS011;68281;51.472;5.712;2023-03-01T07:19:21;6.20;;;3.00;;
42104;SDS011;68281;51.472;5.712;2023-03-01T07:21:47;4.22;;;3.10;;
42104;SDS011;68281;51.472;5.712;2023-03-01T07:24:13;4.82;;;3.05;;
42104;SDS011;68281;51.472;5.712;2023-03-01T07:26:39;4.05;;;2.90;;
42104;SDS011;68281;51.472;5.712;2023-03-01T07:29:06;4.47;;;2.85;;
42104;SDS011;68281;51.472;5.712;2023-03-01T07:31:34;4.40;;;2.95;;
42104;SDS011;68281;51.472;5.712;2023-03-01T07:34:01;3.38;;;2.55;;
42104;SDS011;68281;51.472;5.712;2023-03-01T07:36:27;5.30;;;3.00;;
42104;SDS011;68281;51.472;5.712;2023-03-01T07:38:53;5.38;;;2.97;;
42104;SDS011;68281;51.472;5.712;2023-03-01T07:41:20;4.75;;;3.08;;
42104;SDS011;68281;51.472;5.712;2023-03-01T07:43:46;4.35;;;3.22;;
42104;SDS011;68281;51.472;5.712;2023-03-01T07:46:12;4.95;;;2.90;;
42104;SDS011;68281;51.472;5.712;2023-03-01T07:48:38;4.07;;;2.88;;
42104;SDS011;68281;51.472;5.712;2023-03-01T07:51:05;4.53;;;3.03;;
42104;SDS011;68281;51.472;5.712;2023-03-01T07:53:32;4.68;;;3.05;;
42104;SDS011;68281;51.472;5.712;2023-03-01T07:56:05;3.88;;;2.55;;
42104;SDS011;68281;51.472;5.712;2023-03-01T07:58:34;3.95;;;2.70;;
42104;SDS011;68281;51.472;5.712;2023-03-01T08:01:05;4.40;;;3.17;;
42104;SDS011;68281;51.472;5.712;2023-03-01T08:03:34;4.50;;;2.90;;
42104;SDS011;68281;51.472;5.712;2023-03-01T08:06:02;3.15;;;2.70;;
42104;SDS011;68281;51.472;5.712;2023-03-01T08:08:31;7.43;;;3.20;;
42104;SDS011;68281;51.472;5.712;2023-03-01T08:11:01;3.92;;;2.70;;
42104;SDS011;68281;51.472;5.712;2023-03-01T08:13:29;4.10;;;3.15;;
42104;SDS011;68281;51.472;5.712;2023-03-01T08:16:10;7.45;;;3.20;;
42104;SDS011;68281;51.472;5.712;2023-03-01T08:18:38;5.88;;;2.70;;
42104;SDS011;68281;51.472;5.712;2023-03-01T08:21:05;8.43;;;3.00;;
42104;SDS011;68281;51.472;5.712;2023-03-01T08:23:35;5.22;;;2.90;;
42104;SDS011;68281;51.472;5.712;2023-03-01T08:26:04;5.43;;;2.50;;
42104;SDS011;68281;51.472;5.712;2023-03-01T08:28:48;4.32;;;2.85;;
42104;SDS011;68281;51.472;5.712;2023-03-01T08:33:47;23.63;;;3.80;;
42104;SDS011;68281;51.472;5.712;2023-03-01T08:36:20;29.73;;;4.68;;
42104;SDS011;68281;51.472;5.712;2023-03-01T08:38:54;8.60;;;2.83;;
42104;SDS011;68281;51.472;5.712;2023-03-01T08:41:20;11.98;;;2.85;;
42104;SDS011;68281;51.472;5.712;2023-03-01T08:43:46;7.55;;;2.88;;
42104;SDS011;68281;51.472;5.712;2023-03-01T08:46:12;6.20;;;2.83;;
42104;SDS011;68281;51.472;5.712;2023-03-01T08:48:39;8.43;;;3.25;;
42104;SDS011;68281;51.472;5.712;2023-03-01T08:51:12;15.85;;;3.15;;
42104;SDS011;68281;51.472;5.712;2023-03-01T08:53:40;11.48;;;3.10;;
42104;SDS011;68281;51.472;5.712;2023-03-01T08:56:07;5.13;;;2.92;;
42104;SDS011;68281;51.472;5.712;2023-03-01T08:58:34;8.93;;;2.97;;
42104;SDS011;68281;51.472;5.712;2023-03-01T09:01:00;9.25;;;2.85;;
42104;SDS011;68281;51.472;5.712;2023-03-01T09:03:32;8.02;;;2.80;;
42104;SDS011;68281;51.472;5.712;2023-03-01T09:06:01;8.15;;;2.80;;
42104;SDS011;68281;51.472;5.712;2023-03-01T09:08:29;7.28;;;2.53;;
42104;SDS011;68281;51.472;5.712;2023-03-01T09:10:55;10.63;;;2.90;;
42104;SDS011;68281;51.472;5.712;2023-03-01T09:13:21;9.25;;;2.92;;
42104;SDS011;68281;51.472;5.712;2023-03-01T09:15:49;15.95;;;3.28;;
42104;SDS011;68281;51.472;5.712;2023-03-01T09:18:16;9.43;;;2.80;;
42104;SDS011;68281;51.472;5.712;2023-03-01T09:20:41;7.85;;;2.90;;
42104;SDS011;68281;51.472;5.712;2023-03-01T09:23:07;8.10;;;3.00;;
42104;SDS011;68281;51.472;5.712;2023-03-01T09:25:34;13.18;;;2.60;;
42104;SDS011;68281;51.472;5.712;2023-03-01T09:28:00;6.97;;;2.50;;
42104;SDS011;68281;51.472;5.712;2023-03-01T09:30:25;10.00;;;2.80;;
42104;SDS011;68281;51.472;5.712;2023-03-01T09:32:51;8.90;;;2.80;;
42104;SDS011;68281;51.472;5.712;2023-03-01T09:35:17;4.70;;;2.58;;
42104;SDS011;68281;51.472;5.712;2023-03-01T09:37:44;3.60;;;2.20;;
42104;SDS011;68281;51.472;5.712;2023-03-01T09:40:15;5.00;;;2.45;;
42104;SDS011;68281;51.472;5.712;2023-03-01T09:42:46;10.50;;;2.92;;
42104;SDS011;68281;51.472;5.712;2023-03-01T09:45:34;7.22;;;2.33;;
42104;SDS011;68281;51.472;5.712;2023-03-01T09:48:06;13.95;;;2.88;;
42104;SDS011;68281;51.472;5.712;2023-03-01T09:50:44;14.43;;;2.78;;
42104;SDS011;68281;51.472;5.712;2023-03-01T09:55:58;13.02;;;2.60;;
42104;SDS011;68281;51.472;5.712;2023-03-01T10:01:24;15.48;;;2.63;;
42104;SDS011;68281;51.472;5.712;2023-03-01T10:04:12;16.98;;;2.75;;
42104;SDS011;68281;51.472;5.712;2023-03-01T10:07:20;13.00;;;3.03;;
42104;SDS011;68281;51.472;5.712;2023-03-01T10:10:10;14.75;;;3.10;;
42104;SDS011;68281;51.472;5.712;2023-03-01T10:12:54;15.82;;;2.90;;
42104;SDS011;68281;51.472;5.712;2023-03-01T10:15:28;15.30;;;2.65;;
42104;SDS011;68281;51.472;5.712;2023-03-01T10:18:19;15.18;;;3.05;;
42104;SDS011;68281;51.472;5.712;2023-03-01T10:23:28;12.27;;;2.53;;
42104;SDS011;68281;51.472;5.712;2023-03-01T10:28:50;24.27;;;3.28;;
42104;SDS011;68281;51.472;5.712;2023-03-01T10:31:37;25.40;;;3.55;;
42104;SDS011;68281;51.472;5.712;2023-03-01T10:34:15;26.15;;;3.50;;
42104;SDS011;68281;51.472;5.712;2023-03-01T10:36:52;13.32;;;3.17;;
42104;SDS011;68281;51.472;5.712;2023-03-01T10:39:26;21.20;;;3.57;;
42104;SDS011;68281;51.472;5.712;2023-03-01T10:41:54;16.33;;;3.60;;
42104;SDS011;68281;51.472;5.712;2023-03-01T10:47:17;13.43;;;3.50;;
42104;SDS011;68281;51.472;5.712;2023-03-01T10:50:17;19.92;;;4.50;;
42104;SDS011;68281;51.472;5.712;2023-03-01T10:52:57;15.57;;;3.50;;
42104;SDS011;68281;51.472;5.712;2023-03-01T10:58:11;17.48;;;3.72;;
42104;SDS011;68281;51.472;5.712;2023-03-01T11:00:49;21.13;;;3.60;;
42104;SDS011;68281;51.472;5.712;2023-03-01T11:03:31;18.27;;;3.63;;
42104;SDS011;68281;51.472;5.712;2023-03-01T11:13:34;18.48;;;3.50;;
42104;SDS011;68281;51.472;5.712;2023-03-01T11:16:02;19.00;;;3.47;;
42104;SDS011;68281;51.472;5.712;2023-03-01T11:18:34;18.33;;;3.67;;
42104;SDS011;68281;51.472;5.712;2023-03-01T11:21:00;19.05;;;4.10;;
42104;SDS011;68281;51.472;5.712;2023-03-01T11:23:28;21.80;;;3.85;;
42104;SDS011;68281;51.472;5.712;2023-03-01T11:25:56;26.08;;;4.05;;
42104;SDS011;68281;51.472;5.712;2023-03-01T11:28:34;22.30;;;3.78;;
42104;SDS011;68281;51.472;5.712;2023-03-01T11:31:06;17.25;;;3.95;;
42104;SDS011;68281;51.472;5.712;2023-03-01T11:33:40;17.65;;;4.00;;
42104;SDS011;68281;51.472;5.712;2023-03-01T11:39:02;20.15;;;3.58;;
42104;SDS011;68281;51.472;5.712;2023-03-01T11:42:18;17.13;;;4.35;;
42104;SDS011;68281;51.472;5.712;2023-03-01T11:45:08;19.00;;;3.92;;
42104;SDS011;68281;51.472;5.712;2023-03-01T11:57:42;43.72;;;4.20;;
42104;SDS011;68281;51.472;5.712;2023-03-01T12:15:40;20.65;;;3.95;;
42104;SDS011;68281;51.472;5.712;2023-03-01T12:18:38;19.17;;;3.85;;
42104;SDS011;68281;51.472;5.712;2023-03-01T12:24:10;13.70;;;4.32;;
42104;SDS011;68281;51.472;5.712;2023-03-01T12:33:44;17.08;;;4.30;;
42104;SDS011;68281;51.472;5.712;2023-03-01T12:50:49;15.15;;;4.10;;
42104;SDS011;68281;51.472;5.712;2023-03-01T12:53:24;16.40;;;4.07;;
42104;SDS011;68281;51.472;5.712;2023-03-01T12:56:01;10.70;;;3.83;;
42104;SDS011;68281;51.472;5.712;2023-03-01T12:58:32;9.82;;;3.47;;
42104;SDS011;68281;51.472;5.712;2023-03-01T13:17:49;11.93;;;3.55;;
42104;SDS011;68281;51.472;5.712;2023-03-01T13:20:19;13.70;;;3.60;;
42104;SDS011;68281;51.472;5.712;2023-03-01T13:23:09;12.15;;;3.80;;
42104;SDS011;68281;51.472;5.712;2023-03-01T13:33:51;9.82;;;3.17;;
42104;SDS011;68281;51.472;5.712;2023-03-01T13:44:11;11.53;;;3.13;;
42104;SDS011;68281;51.472;5.712;2023-03-01T13:46:46;7.82;;;2.72;;
42104;SDS011;68281;51.472;5.712;2023-03-01T13:49:14;7.10;;;3.03;;
42104;SDS011;68281;51.472;5.712;2023-03-01T13:51:47;12.60;;;3.53;;
42104;SDS011;68281;51.472;5.712;2023-03-01T13:54:25;9.80;;;3.05;;
42104;SDS011;68281;51.472;5.712;2023-03-01T13:56:56;7.75;;;2.85;;
42104;SDS011;68281;51.472;5.712;2023-03-01T13:59:24;11.45;;;3.35;;
42104;SDS011;68281;51.472;5.712;2023-03-01T14:01:59;8.13;;;2.80;;
42104;SDS011;68281;51.472;5.712;2023-03-01T14:04:26;8.52;;;3.00;;
42104;SDS011;68281;51.472;5.712;2023-03-01T14:07:11;9.40;;;3.10;;
42104;SDS011;68281;51.472;5.712;2023-03-01T14:09:49;13.48;;;3.22;;
42104;SDS011;68281;51.472;5.712;2023-03-01T14:15:21;7.22;;;2.92;;
42104;SDS011;68281;51.472;5.712;2023-03-01T14:20:51;8.55;;;2.88;;
42104;SDS011;68281;51.472;5.712;2023-03-01T14:23:18;6.05;;;2.83;;
42104;SDS011;68281;51.472;5.712;2023-03-01T14:25:48;8.25;;;3.00;;
42104;SDS011;68281;51.472;5.712;2023-03-01T14:30:59;11.10;;;2.65;;
42104;SDS011;68281;51.472;5.712;2023-03-01T14:36:08;7.38;;;3.35;;
42104;SDS011;68281;51.472;5.712;2023-03-01T14:38:39;8.80;;;3.05;;
42104;SDS011;68281;51.472;5.712;2023-03-01T14:41:12;8.93;;;2.88;;
42104;SDS011;68281;51.472;5.712;2023-03-01T14:43:55;10.38;;;2.80;;
42104;SDS011;68281;51.472;5.712;2023-03-01T14:46:33;8.32;;;2.92;;
42104;SDS011;68281;51.472;5.712;2023-03-01T14:51:35;6.68;;;3.05;;
42104;SDS011;68281;51.472;5.712;2023-03-01T14:54:24;7.15;;;3.00;;
42104;SDS011;68281;51.472;5.712;2023-03-01T14:57:17;6.15;;;2.72;;
42104;SDS011;68281;51.472;5.712;2023-03-01T14:59:48;7.15;;;3.10;;
42104;SDS011;68281;51.472;5.712;2023-03-01T15:02:18;9.95;;;2.92;;
42104;SDS011;68281;51.472;5.712;2023-03-01T15:04:49;13.18;;;3.00;;
42104;SDS011;68281;51.472;5.712;2023-03-01T15:07:26;7.60;;;2.80;;
42104;SDS011;68281;51.472;5.712;2023-03-01T15:09:57;9.32;;;3.13;;
42104;SDS011;68281;51.472;5.712;2023-03-01T15:14:53;4.43;;;2.90;;
42104;SDS011;68281;51.472;5.712;2023-03-01T15:17:25;5.50;;;2.80;;
42104;SDS011;68281;51.472;5.712;2023-03-01T15:19:55;5.50;;;2.75;;
42104;SDS011;68281;51.472;5.712;2023-03-01T15:22:21;7.88;;;3.10;;
42104;SDS011;68281;51.472;5.712;2023-03-01T15:24:48;8.52;;;2.72;;
42104;SDS011;68281;51.472;5.712;2023-03-01T15:27:16;7.70;;;2.72;;
42104;SDS011;68281;51.472;5.712;2023-03-01T15:29:50;9.15;;;3.03;;
42104;SDS011;68281;51.472;5.712;2023-03-01T15:32:25;8.35;;;2.55;;
42104;SDS011;68281;51.472;5.712;2023-03-01T15:34:52;7.80;;;2.90;;
42104;SDS011;68281;51.472;5.712;2023-03-01T15:40:22;9.73;;;3.10;;
42104;SDS011;68281;51.472;5.712;2023-03-01T15:42:57;8.50;;;2.73;;
42104;SDS011;68281;51.472;5.712;2023-03-01T15:45:28;18.42;;;3.75;;
42104;SDS011;68281;51.472;5.712;2023-03-01T15:48:00;13.45;;;3.53;;
42104;SDS011;68281;51.472;5.712;2023-03-01T15:50:40;6.72;;;3.03;;
42104;SDS011;68281;51.472;5.712;2023-03-01T15:53:12;10.32;;;3.33;;
42104;SDS011;68281;51.472;5.712;2023-03-01T15:55:39;9.85;;;3.15;;
42104;SDS011;68281;51.472;5.712;2023-03-01T15:58:08;7.97;;;2.92;;
42104;SDS011;68281;51.472;5.712;2023-03-01T16:00:54;11.35;;;2.72;;
42104;SDS011;68281;51.472;5.712;2023-03-01T16:03:23;22.90;;;3.40;;
42104;SDS011;68281;51.472;5.712;2023-03-01T16:05:50;16.55;;;3.45;;
42104;SDS011;68281;51.472;5.712;2023-03-01T16:08:17;23.00;;;3.85;;
42104;SDS011;68281;51.472;5.712;2023-03-01T16:10:43;19.33;;;3.25;;
42104;SDS011;68281;51.472;5.712;2023-03-01T16:13:13;15.52;;;3.42;;
42104;SDS011;68281;51.472;5.712;2023-03-01T16:15:39;15.50;;;3.05;;
42104;SDS011;68281;51.472;5.712;2023-03-01T16:18:06;12.30;;;2.60;;
42104;SDS011;68281;51.472;5.712;2023-03-01T16:20:34;15.85;;;2.90;;
42104;SDS011;68281;51.472;5.712;2023-03-01T16:23:01;12.20;;;2.90;;
42104;SDS011;68281;51.472;5.712;2023-03-01T16:25:30;12.93;;;2.60;;
42104;SDS011;68281;51.472;5.712;2023-03-01T16:27:57;13.10;;;2.88;;
42104;SDS011;68281;51.472;5.712;2023-03-01T16:30:25;14.70;;;3.10;;
42104;SDS011;68281;51.472;5.712;2023-03-01T16:32:52;9.32;;;2.75;;
42104;SDS011;68281;51.472;5.712;2023-03-01T16:35:19;18.92;;;4.95;;
42104;SDS011;68281;51.472;5.712;2023-03-01T16:37:46;80.57;;;15.10;;
42104;SDS011;68281;51.472;5.712;2023-03-01T16:42:44;192.95;;;31.83;;
42104;SDS011;68281;51.472;5.712;2023-03-01T16:45:10;137.02;;;28.10;;
42104;SDS011;68281;51.472;5.712;2023-03-01T16:47:36;119.07;;;23.60;;
42104;SDS011;68281;51.472;5.712;2023-03-01T16:50:02;124.93;;;24.02;;
42104;SDS011;68281;51.472;5.712;2023-03-01T16:52:28;131.75;;;24.65;;
42104;SDS011;68281;51.472;5.712;2023-03-01T16:54:53;146.02;;;24.50;;
42104;SDS011;68281;51.472;5.712;2023-03-01T16:57:19;112.55;;;21.85;;
42104;SDS011;68281;51.472;5.712;2023-03-01T16:59:45;122.15;;;23.02;;
42104;SDS011;68281;51.472;5.712;2023-03-01T17:02:14;119.65;;;23.52;;
42104;SDS011;68281;51.472;5.712;2023-03-01T17:04:44;106.50;;;21.55;;
42104;SDS011;68281;51.472;5.712;2023-03-01T17:07:16;101.78;;;21.73;;
42104;SDS011;68281;51.472;5.712;2023-03-01T17:09:42;112.45;;;21.27;;
42104;SDS011;68281;51.472;5.712;2023-03-01T17:12:08;113.25;;;22.27;;
42104;SDS011;68281;51.472;5.712;2023-03-01T17:14:36;106.22;;;21.23;;
42104;SDS011;68281;51.472;5.712;2023-03-01T17:17:03;101.22;;;21.05;;
42104;SDS011;68281;51.472;5.712;2023-03-01T17:19:29;137.90;;;21.58;;
42104;SDS011;68281;51.472;5.712;2023-03-01T17:21:56;118.80;;;21.58;;
42104;SDS011;68281;51.472;5.712;2023-03-01T17:24:22;99.90;;;21.17;;
42104;SDS011;68281;51.472;5.712;2023-03-01T17:26:48;111.50;;;21.95;;
42104;SDS011;68281;51.472;5.712;2023-03-01T17:29:14;104.30;;;21.33;;
42104;SDS011;68281;51.472;5.712;2023-03-01T17:31:42;89.30;;;21.33;;
42104;SDS011;68281;51.472;5.712;2023-03-01T17:34:08;91.75;;;19.80;;